createdAt,value
2018-09-28T00:00:03.485Z,7.47
2018-09-28T00:02:31.232Z,8.03
2018-09-28T00:04:58.940Z,7.57
2018-09-28T00:07:26.677Z,8.97
2018-09-28T00:09:54.426Z,8.57
2018-09-28T00:12:22.158Z,7.17
2018-09-28T00:14:49.946Z,7.50
2018-09-28T00:17:17.824Z,7.70
2018-09-28T00:19:45.584Z,7.80
2018-09-28T00:22:13.321Z,8.47
2018-09-28T00:24:41.093Z,7.73
2018-09-28T00:27:08.845Z,7.90
2018-09-28T00:29:36.597Z,8.00
2018-09-28T00:32:04.343Z,8.50
2018-09-28T00:34:33.014Z,7.43
2018-09-28T00:37:00.784Z,9.00
2018-09-28T00:39:28.556Z,8.17
2018-09-28T00:41:56.341Z,7.50
2018-09-28T00:44:24.115Z,8.10
2018-09-28T00:46:52.736Z,8.60
2018-09-28T00:49:20.524Z,7.37
2018-09-28T00:51:48.305Z,6.70
2018-09-28T00:54:16.042Z,7.87
2018-09-28T00:56:43.831Z,7.83
2018-09-28T00:59:11.594Z,7.33
2018-09-28T01:01:39.364Z,7.70
2018-09-28T01:04:07.116Z,7.50
2018-09-28T01:06:34.937Z,6.87
2018-09-28T01:09:02.914Z,8.43
2018-09-28T01:11:30.693Z,7.53
2018-09-28T01:13:58.462Z,7.60
2018-09-28T01:16:26.219Z,8.03
2018-09-28T01:18:53.929Z,7.93
2018-09-28T01:21:21.702Z,8.80
2018-09-28T01:23:49.448Z,8.83
2018-09-28T01:26:17.259Z,8.40
2018-09-28T01:28:45.039Z,8.20
2018-09-28T01:31:12.804Z,7.15
2018-09-28T01:33:40.541Z,7.80
2018-09-28T01:36:08.305Z,9.83
2018-09-28T01:38:36.129Z,8.67
2018-09-28T01:41:03.933Z,8.60
2018-09-28T01:43:32.552Z,8.50
2018-09-28T01:46:00.309Z,8.43
2018-09-28T01:48:28.079Z,9.05
2018-09-28T01:50:55.816Z,8.43
2018-09-28T01:53:23.590Z,7.83
2018-09-28T01:55:51.348Z,8.70
2018-09-28T01:58:19.136Z,9.03
2018-09-28T02:00:46.917Z,8.73
2018-09-28T02:03:14.710Z,8.05
2018-09-28T02:05:42.493Z,8.53
2018-09-28T02:08:10.270Z,8.70
2018-09-28T02:10:38.574Z,8.53
2018-09-28T02:13:06.343Z,9.23
2018-09-28T02:15:34.092Z,9.53
2018-09-28T02:18:01.873Z,9.40
2018-09-28T02:20:29.655Z,9.65
2018-09-28T02:22:57.455Z,8.35
2018-09-28T02:25:25.213Z,8.73
2018-09-28T02:27:53.018Z,9.03
2018-09-28T02:30:20.791Z,8.03
2018-09-28T02:32:48.618Z,9.53
2018-09-28T02:35:16.380Z,9.73
2018-09-28T02:37:44.256Z,8.70
2018-09-28T02:40:12.050Z,9.97
2018-09-28T02:42:39.812Z,9.70
2018-09-28T02:45:07.631Z,9.28
2018-09-28T02:47:35.426Z,9.50
2018-09-28T02:50:03.252Z,8.25
2018-09-28T02:52:31.071Z,8.15
2018-09-28T02:54:58.821Z,10.03
2018-09-28T02:57:26.638Z,7.60
2018-09-28T02:59:54.413Z,9.35
2018-09-28T03:02:22.204Z,8.53
2018-09-28T03:04:49.982Z,9.03
2018-09-28T03:07:17.759Z,9.05
2018-09-28T03:09:45.537Z,9.10
2018-09-28T03:12:13.327Z,8.73
2018-09-28T03:14:41.082Z,10.23
2018-09-28T03:17:08.853Z,10.13
2018-09-28T03:19:36.599Z,8.68
2018-09-28T03:22:04.360Z,8.13
2018-09-28T03:24:32.113Z,8.10
2018-09-28T03:26:59.882Z,9.58
2018-09-28T03:29:27.642Z,8.50
2018-09-28T03:31:55.392Z,8.20
2018-09-28T03:34:23.438Z,9.18
2018-09-28T03:36:51.188Z,7.97
2018-09-28T03:39:18.954Z,7.83
2018-09-28T03:41:46.992Z,7.30
2018-09-28T03:44:14.710Z,7.42
2018-09-28T03:46:42.470Z,6.90
2018-09-28T03:49:10.225Z,8.93
2018-09-28T03:51:37.973Z,7.80
2018-09-28T03:54:05.743Z,7.55
2018-09-28T03:56:33.497Z,7.10
2018-09-28T03:59:01.272Z,7.62
2018-09-28T04:01:29.014Z,6.80
2018-09-28T04:03:56.834Z,7.42
2018-09-28T04:06:24.571Z,7.67
2018-09-28T04:08:52.467Z,9.25
2018-09-28T04:11:20.229Z,9.55
2018-09-28T04:13:54.604Z,7.90
2018-09-28T04:16:22.372Z,8.53
2018-09-28T04:18:50.118Z,8.13
2018-09-28T04:21:17.885Z,9.30
2018-09-28T04:23:45.651Z,7.42
2018-09-28T04:26:13.486Z,8.00
2018-09-28T04:28:41.300Z,7.50
2018-09-28T04:31:09.041Z,8.63
2018-09-28T04:33:36.812Z,6.55
2018-09-28T04:36:04.576Z,8.58
2018-09-28T04:38:32.396Z,7.12
2018-09-28T04:41:00.173Z,9.80
2018-09-28T04:43:27.954Z,7.47
2018-09-28T04:45:55.692Z,7.55
2018-09-28T04:48:23.484Z,9.63
2018-09-28T04:50:51.245Z,7.35
2018-09-28T04:53:19.039Z,9.10
2018-09-28T04:55:46.779Z,7.03
2018-09-28T04:58:14.577Z,8.28
2018-09-28T05:00:42.303Z,6.70
2018-09-28T05:03:10.084Z,7.55
2018-09-28T05:05:37.817Z,7.87
2018-09-28T05:08:05.640Z,8.78
2018-09-28T05:10:33.359Z,8.40
2018-09-28T05:13:01.152Z,7.92
2018-09-28T05:15:28.961Z,7.92
2018-09-28T05:17:56.691Z,8.38
2018-09-28T05:20:24.399Z,8.00
2018-09-28T05:22:52.213Z,8.58
2018-09-28T05:25:20.021Z,9.38
2018-09-28T05:27:47.734Z,7.60
2018-09-28T05:30:15.521Z,7.72
2018-09-28T05:32:43.489Z,7.75
2018-09-28T05:35:11.060Z,8.23
2018-09-28T05:37:38.833Z,10.03
2018-09-28T05:40:06.670Z,8.53
2018-09-28T05:42:34.442Z,7.62
2018-09-28T05:45:02.219Z,9.10
2018-09-28T05:47:30.088Z,8.70
2018-09-28T05:49:57.856Z,8.83
2018-09-28T05:52:25.621Z,9.08
2018-09-28T05:54:53.379Z,8.00
2018-09-28T05:57:21.159Z,8.30
2018-09-28T05:59:54.572Z,11.20
2018-09-28T06:03:31.628Z,8.43
2018-09-28T06:06:01.022Z,8.43
2018-09-28T06:08:29.035Z,9.10
2018-09-28T06:10:56.862Z,9.43
2018-09-28T06:13:24.646Z,9.70
2018-09-28T06:15:52.682Z,9.70
2018-09-28T06:18:20.575Z,9.15
2018-09-28T06:20:48.386Z,9.50
2018-09-28T06:23:16.213Z,9.65
2018-09-28T06:25:44.178Z,9.75
2018-09-28T06:28:11.949Z,9.95
2018-09-28T06:30:39.868Z,8.93
2018-09-28T06:33:07.638Z,9.50
2018-09-28T06:35:35.454Z,10.43
2018-09-28T06:38:03.294Z,10.13
2018-09-28T06:40:31.040Z,9.93
2018-09-28T06:42:58.818Z,11.50
2018-09-28T06:45:26.546Z,11.70
2018-09-28T06:47:54.363Z,12.70
2018-09-28T06:50:22.061Z,15.03
2018-09-28T06:52:49.812Z,16.40
2018-09-28T06:55:17.563Z,15.70
2018-09-28T06:57:45.320Z,16.37
2018-09-28T07:00:13.105Z,20.33
2018-09-28T07:02:40.886Z,18.17
2018-09-28T07:05:08.704Z,17.20
2018-09-28T07:07:36.448Z,19.27
2018-09-28T07:10:04.279Z,19.37
2018-09-28T07:12:32.041Z,17.57
2018-09-28T07:14:59.823Z,17.17
2018-09-28T07:17:27.574Z,17.30
2018-09-28T07:19:55.459Z,17.27
2018-09-28T07:22:23.258Z,18.20
2018-09-28T07:24:51.094Z,16.40
2018-09-28T07:27:18.777Z,17.60
2018-09-28T07:29:46.587Z,18.07
2018-09-28T07:32:14.322Z,17.80
2018-09-28T07:34:42.076Z,17.03
2018-09-28T07:37:09.924Z,17.67
2018-09-28T07:39:37.628Z,17.87
2018-09-28T07:42:05.496Z,17.60
2018-09-28T07:44:33.272Z,18.03
2018-09-28T07:47:01.057Z,18.47
2018-09-28T07:49:28.833Z,16.83
2018-09-28T07:51:56.559Z,18.60
2018-09-28T07:54:24.303Z,19.47
2018-09-28T07:56:52.043Z,18.80
2018-09-28T07:59:19.808Z,18.10
2018-09-28T08:01:47.518Z,19.70
2018-09-28T08:04:15.241Z,22.20
2018-09-28T08:06:42.962Z,22.17
2018-09-28T08:09:11.305Z,21.90
2018-09-28T08:11:39.035Z,24.30
2018-09-28T08:14:07.345Z,24.30
2018-09-28T08:16:35.075Z,25.33
2018-09-28T08:19:02.826Z,27.35
2018-09-28T08:21:30.565Z,26.87
2018-09-28T08:23:58.309Z,28.00
2018-09-28T08:26:26.037Z,28.63
2018-09-28T08:28:53.796Z,32.63
2018-09-28T08:31:21.520Z,32.85
2018-09-28T08:33:49.245Z,32.60
2018-09-28T08:36:17.026Z,30.07
2018-09-28T08:38:44.757Z,33.50
2018-09-28T08:41:12.497Z,34.07
2018-09-28T08:43:40.292Z,33.03
2018-09-28T08:46:08.038Z,35.27
2018-09-28T08:48:35.776Z,34.20
2018-09-28T08:51:03.658Z,33.80
2018-09-28T08:53:31.393Z,37.17
2018-09-28T08:55:59.151Z,36.70
2018-09-28T08:58:26.898Z,34.77
2018-09-28T09:00:54.648Z,36.63
2018-09-28T09:03:22.381Z,36.70
2018-09-28T09:05:50.126Z,38.07
2018-09-28T09:08:17.852Z,37.77
2018-09-28T09:10:45.613Z,40.70
2018-09-28T09:13:13.360Z,39.33
2018-09-28T09:15:41.678Z,40.43
2018-09-28T09:18:09.573Z,41.00
2018-09-28T09:20:37.243Z,41.00
2018-09-28T09:23:05.010Z,41.10
2018-09-28T09:25:32.777Z,41.93
2018-09-28T09:28:00.545Z,41.73
2018-09-28T09:30:28.337Z,41.23
2018-09-28T09:32:56.076Z,42.80
2018-09-28T09:35:23.919Z,40.55
2018-09-28T09:37:51.780Z,41.33
2018-09-28T09:40:19.532Z,40.40
2018-09-28T09:42:47.387Z,40.57
2018-09-28T09:45:15.085Z,42.10
2018-09-28T09:47:42.969Z,44.07
2018-09-28T09:50:10.812Z,41.87
2018-09-28T09:52:38.569Z,41.80
2018-09-28T09:55:07.410Z,43.27
2018-09-28T09:57:35.228Z,44.27
2018-09-28T10:00:03.073Z,44.70
2018-09-28T10:02:36.424Z,42.40
2018-09-28T10:05:04.272Z,43.10
2018-09-28T10:07:32.051Z,42.73
2018-09-28T10:09:59.847Z,40.87
2018-09-28T10:12:27.644Z,38.80
2018-09-28T10:14:55.718Z,40.53
2018-09-28T10:17:23.595Z,38.67
2018-09-28T10:19:51.369Z,38.30
2018-09-28T10:22:19.145Z,36.77
2018-09-28T10:24:46.954Z,37.07
2018-09-28T10:27:14.724Z,36.87
2018-09-28T10:29:42.513Z,34.83
2018-09-28T10:32:10.281Z,31.83
2018-09-28T10:34:38.070Z,32.97
2018-09-28T10:37:05.813Z,30.67
2018-09-28T10:39:33.663Z,30.17
2018-09-28T10:42:01.389Z,28.20
2018-09-28T10:44:29.184Z,28.93
2018-09-28T10:46:56.925Z,27.03
2018-09-28T10:49:24.765Z,25.17
2018-09-28T10:51:52.629Z,26.30
2018-09-28T10:54:20.360Z,26.07
2018-09-28T10:56:48.157Z,23.93
2018-09-28T10:59:15.908Z,21.70
2018-09-28T11:01:43.653Z,19.90
2018-09-28T11:04:11.402Z,20.67
2018-09-28T11:06:39.217Z,20.30
2018-09-28T11:09:08.719Z,17.17
2018-09-28T11:11:36.448Z,19.23
2018-09-28T11:14:04.270Z,15.27
2018-09-28T11:16:32.088Z,15.30
2018-09-28T11:18:59.946Z,15.47
2018-09-28T11:21:27.677Z,13.50
2018-09-28T11:23:55.448Z,14.17
2018-09-28T11:26:23.266Z,15.10
2018-09-28T11:28:51.049Z,12.87
2018-09-28T11:31:18.849Z,12.90
2018-09-28T11:33:46.704Z,13.60
2018-09-28T11:36:14.411Z,12.67
2018-09-28T11:38:42.198Z,12.73
2018-09-28T11:41:09.971Z,11.23
2018-09-28T11:43:37.721Z,11.27
2018-09-28T11:46:05.550Z,10.60
2018-09-28T11:48:33.303Z,10.93
2018-09-28T11:51:01.110Z,10.13
2018-09-28T11:53:28.866Z,7.90
2018-09-28T11:55:56.636Z,7.80
2018-09-28T11:58:24.382Z,8.40
2018-09-28T12:00:52.155Z,7.47
2018-09-28T12:03:19.999Z,9.17
2018-09-28T12:05:47.772Z,7.70
2018-09-28T12:08:15.516Z,7.70
2018-09-28T12:10:43.319Z,5.77
2018-09-28T12:13:11.098Z,5.37
2018-09-28T12:15:38.924Z,4.90
2018-09-28T12:18:06.753Z,4.30
2018-09-28T12:20:34.547Z,4.30
2018-09-28T12:23:02.285Z,4.40
2018-09-28T12:25:30.070Z,3.60
2018-09-28T12:27:57.804Z,3.63
2018-09-28T12:30:25.687Z,2.93
2018-09-28T12:32:53.322Z,2.57
2018-09-28T12:35:21.089Z,3.07
2018-09-28T12:37:48.893Z,3.03
2018-09-28T12:40:16.677Z,2.87
2018-09-28T12:42:44.610Z,3.47
2018-09-28T12:45:12.469Z,3.17
2018-09-28T12:47:40.203Z,3.63
2018-09-28T12:50:07.990Z,2.80
2018-09-28T12:52:35.740Z,3.63
2018-09-28T12:55:03.569Z,3.50
2018-09-28T12:57:31.301Z,3.57
2018-09-28T12:59:59.149Z,2.77
2018-09-28T13:02:26.906Z,2.80
2018-09-28T13:04:54.654Z,3.50
2018-09-28T13:07:22.422Z,3.90
2018-09-28T13:09:50.198Z,2.73
2018-09-28T13:12:18.072Z,3.70
2018-09-28T13:14:45.872Z,3.70
2018-09-28T13:17:13.605Z,3.83
2018-09-28T13:19:41.436Z,3.43
2018-09-28T13:22:09.189Z,3.40
2018-09-28T13:24:37.032Z,2.67
2018-09-28T13:27:04.747Z,3.10
2018-09-28T13:29:32.496Z,5.00
2018-09-28T13:32:00.237Z,3.10
2018-09-28T13:34:28.122Z,2.97
2018-09-28T13:36:55.945Z,3.73
2018-09-28T13:39:23.774Z,2.80
2018-09-28T13:41:51.561Z,3.00
2018-09-28T13:44:19.356Z,2.77
2018-09-28T13:46:47.176Z,3.10
2018-09-28T13:49:14.912Z,2.87
2018-09-28T13:51:42.644Z,3.70
2018-09-28T13:54:10.450Z,3.33
2018-09-28T13:56:38.262Z,3.83
2018-09-28T13:59:07.280Z,3.73
2018-09-28T14:04:10.634Z,3.87
2018-09-28T14:06:38.539Z,3.90
2018-09-28T14:09:08.232Z,3.33
2018-09-28T14:11:36.013Z,4.00
2018-09-28T14:14:03.829Z,4.70
2018-09-28T14:16:31.689Z,5.13
2018-09-28T14:18:59.417Z,5.23
2018-09-28T14:21:27.205Z,3.93
2018-09-28T14:23:55.000Z,3.43
2018-09-28T14:26:22.946Z,5.77
2018-09-28T14:28:50.953Z,5.67
2018-09-28T14:31:18.833Z,3.47
2018-09-28T14:33:46.655Z,2.77
2018-09-28T14:36:14.410Z,5.00
2018-09-28T14:38:42.190Z,3.40
2018-09-28T14:41:09.990Z,2.43
2018-09-28T14:43:37.737Z,2.70
2018-09-28T14:46:05.510Z,2.43
2018-09-28T14:48:33.372Z,3.27
2018-09-28T14:51:01.191Z,2.90
2018-09-28T14:53:28.993Z,2.57
2018-09-28T14:55:56.753Z,2.57
2018-09-28T14:58:24.520Z,3.57
2018-09-28T15:00:52.392Z,2.70
2018-09-28T15:03:20.097Z,2.83
2018-09-28T15:05:47.993Z,2.50
2018-09-28T15:08:15.825Z,3.03
2018-09-28T15:10:43.589Z,2.30
2018-09-28T15:13:11.342Z,3.00
2018-09-28T15:15:39.201Z,2.63
2018-09-28T15:18:06.980Z,3.20
2018-09-28T15:20:34.816Z,3.87
2018-09-28T15:23:02.560Z,3.40
2018-09-28T15:25:30.338Z,3.10
2018-09-28T15:27:58.065Z,2.53
2018-09-28T15:30:25.813Z,2.27
2018-09-28T15:32:53.601Z,2.70
2018-09-28T15:35:21.450Z,2.53
2018-09-28T15:37:49.146Z,3.20
2018-09-28T15:40:16.954Z,2.93
2018-09-28T15:42:44.709Z,3.33
2018-09-28T15:45:12.496Z,3.23
2018-09-28T15:47:40.341Z,2.67
2018-09-28T15:50:08.128Z,2.97
2018-09-28T15:52:35.892Z,3.60
2018-09-28T15:55:03.738Z,3.13
2018-09-28T15:57:31.516Z,3.60
2018-09-28T15:59:59.302Z,3.70
2018-09-28T16:02:27.055Z,5.13
2018-09-28T16:04:54.828Z,4.10
2018-09-28T16:07:22.640Z,2.60
2018-09-28T16:09:50.433Z,4.90
2018-09-28T16:12:18.321Z,3.27
2018-09-28T16:14:46.064Z,2.43
2018-09-28T16:17:13.850Z,4.00
2018-09-28T16:19:41.636Z,2.80
2018-09-28T16:22:09.490Z,2.63
2018-09-28T16:24:37.264Z,3.00
2018-09-28T16:27:05.125Z,2.67
2018-09-28T16:29:32.920Z,2.70
2018-09-28T16:32:00.677Z,3.50
2018-09-28T16:34:28.442Z,1.87
2018-09-28T16:36:56.189Z,2.37
2018-09-28T16:39:23.960Z,1.77
2018-09-28T16:41:51.700Z,2.43
2018-09-28T16:44:19.433Z,3.20
2018-09-28T16:46:47.160Z,2.40
2018-09-28T16:49:14.905Z,2.40
2018-09-28T16:51:42.613Z,3.77
2018-09-28T16:54:10.340Z,1.93
2018-09-28T16:56:38.060Z,2.80
2018-09-28T16:59:05.978Z,2.10
2018-09-28T17:01:33.718Z,2.43
2018-09-28T17:04:01.505Z,2.47
2018-09-28T17:06:29.266Z,2.33
2018-09-28T17:08:57.007Z,2.60
2018-09-28T17:11:24.746Z,2.00
2018-09-28T17:13:52.505Z,2.90
2018-09-28T17:16:20.275Z,2.90
2018-09-28T17:18:47.984Z,2.37
2018-09-28T17:21:15.712Z,2.70
2018-09-28T17:23:43.604Z,1.60
2018-09-28T17:26:11.315Z,2.70
2018-09-28T17:28:39.125Z,2.30
2018-09-28T17:31:07.010Z,2.50
2018-09-28T17:33:34.788Z,2.80
2018-09-28T17:36:02.540Z,3.00
2018-09-28T17:38:30.286Z,2.20
2018-09-28T17:40:58.071Z,2.50
2018-09-28T17:43:25.796Z,2.50
2018-09-28T17:45:53.505Z,2.13
2018-09-28T17:48:21.220Z,2.20
2018-09-28T17:50:48.941Z,1.83
2018-09-28T17:53:16.665Z,2.20
2018-09-28T17:55:44.536Z,2.43
2018-09-28T17:58:12.275Z,1.93
2018-09-28T18:00:40.136Z,2.50
2018-09-28T18:03:07.845Z,2.50
2018-09-28T18:05:35.646Z,2.37
2018-09-28T18:08:03.381Z,4.95
2018-09-28T18:10:31.128Z,2.70
2018-09-28T18:12:58.925Z,2.83
2018-09-28T18:15:26.672Z,3.17
2018-09-28T18:17:54.444Z,3.20
2018-09-28T18:20:22.266Z,3.33
2018-09-28T18:22:49.996Z,2.80
2018-09-28T18:25:17.735Z,1.87
2018-09-28T18:27:45.436Z,2.60
2018-09-28T18:30:13.232Z,2.73
2018-09-28T18:32:40.957Z,3.10
2018-09-28T18:35:09.035Z,2.75
2018-09-28T18:37:36.809Z,3.00
2018-09-28T18:40:04.719Z,2.80
2018-09-28T18:42:32.461Z,3.60
2018-09-28T18:45:00.189Z,4.25
2018-09-28T18:47:27.912Z,3.60
2018-09-28T18:49:55.621Z,3.40
2018-09-28T18:52:23.363Z,2.20
2018-09-28T18:54:51.103Z,3.58
2018-09-28T18:57:18.996Z,3.45
2018-09-28T18:59:47.360Z,3.10
2018-09-28T19:02:15.303Z,2.62
2018-09-28T19:04:43.045Z,3.25
2018-09-28T19:07:10.789Z,3.23
2018-09-28T19:09:38.537Z,2.67
2018-09-28T19:12:06.280Z,3.27
2018-09-28T19:14:34.017Z,3.45
2018-09-28T19:17:01.772Z,3.83
2018-09-28T19:19:29.548Z,3.25
2018-09-28T19:21:57.299Z,4.15
2018-09-28T19:24:25.032Z,4.10
2018-09-28T19:26:52.802Z,3.60
2018-09-28T19:29:20.551Z,3.77
2018-09-28T19:31:48.281Z,2.67
2018-09-28T19:34:16.009Z,3.42
2018-09-28T19:36:43.799Z,3.37
2018-09-28T19:39:11.539Z,3.25
2018-09-28T19:41:39.999Z,4.97
2018-09-28T19:44:07.797Z,3.30
2018-09-28T19:46:35.533Z,3.60
2018-09-28T19:49:03.373Z,3.08
2018-09-28T19:51:31.378Z,3.67
2018-09-28T19:53:59.102Z,3.40
2018-09-28T19:56:26.851Z,3.77
2018-09-28T19:58:54.563Z,4.00
2018-09-28T20:01:22.308Z,4.22
2018-09-28T20:03:50.064Z,3.50
2018-09-28T20:06:17.878Z,3.02
2018-09-28T20:08:45.538Z,4.05
2018-09-28T20:11:13.292Z,3.80
2018-09-28T20:13:41.023Z,3.33
2018-09-28T20:16:08.801Z,3.22
2018-09-28T20:18:36.521Z,3.20
2018-09-28T20:21:04.314Z,4.35
2018-09-28T20:23:32.100Z,4.83
2018-09-28T20:25:59.912Z,3.75
2018-09-28T20:28:27.733Z,2.62
2018-09-28T20:30:55.537Z,3.42
2018-09-28T20:33:23.304Z,3.17
2018-09-28T20:35:51.154Z,3.30
2018-09-28T20:38:18.939Z,2.75
2018-09-28T20:40:46.850Z,3.30
2018-09-28T20:43:14.594Z,3.50
2018-09-28T20:45:42.312Z,2.70
2018-09-28T20:48:10.081Z,3.30
2018-09-28T20:50:37.896Z,3.60
2018-09-28T20:53:05.712Z,3.60
2018-09-28T20:55:33.498Z,3.77
2018-09-28T20:58:01.378Z,2.77
2018-09-28T21:00:29.144Z,3.33
2018-09-28T21:02:56.886Z,2.90
2018-09-28T21:05:24.735Z,3.95
2018-09-28T21:07:52.578Z,2.90
2018-09-28T21:10:20.336Z,3.50
2018-09-28T21:12:48.104Z,3.47
2018-09-28T21:15:15.831Z,3.58
2018-09-28T21:17:43.583Z,3.70
2018-09-28T21:20:11.446Z,3.50
2018-09-28T21:22:39.212Z,3.98
2018-09-28T21:25:06.642Z,3.62
2018-09-28T21:27:34.493Z,2.90
2018-09-28T21:30:02.223Z,3.08
2018-09-28T21:32:29.940Z,4.30
2018-09-28T21:34:57.661Z,3.30
2018-09-28T21:37:25.407Z,4.17
2018-09-28T21:39:53.152Z,3.02
2018-09-28T21:42:20.861Z,4.42
2018-09-28T21:44:48.580Z,3.65
2018-09-28T21:47:16.276Z,3.02
2018-09-28T21:49:44.100Z,3.10
2018-09-28T21:52:11.800Z,3.90
2018-09-28T21:54:39.592Z,3.47
2018-09-28T21:57:07.357Z,4.80
2018-09-28T21:59:35.095Z,4.15
2018-09-28T22:02:02.821Z,4.08
2018-09-28T22:04:30.548Z,4.42
2018-09-28T22:06:58.243Z,4.17
2018-09-28T22:09:26.004Z,4.22
2018-09-28T22:11:53.704Z,3.40
2018-09-28T22:14:21.457Z,4.08
2018-09-28T22:16:49.189Z,4.00
2018-09-28T22:19:16.943Z,3.00
2018-09-28T22:21:44.676Z,3.65
2018-09-28T22:24:12.439Z,3.60
2018-09-28T22:26:40.183Z,2.60
2018-09-28T22:29:07.956Z,3.67
2018-09-28T22:31:35.671Z,3.27
2018-09-28T22:34:03.426Z,3.35
2018-09-28T22:36:31.184Z,3.67
2018-09-28T22:38:58.988Z,3.37
2018-09-28T22:41:26.684Z,3.10
2018-09-28T22:43:54.431Z,2.87
2018-09-28T22:46:22.145Z,3.25
2018-09-28T22:48:49.877Z,3.62
2018-09-28T22:51:17.581Z,3.35
2018-09-28T22:53:45.304Z,3.65
2018-09-28T22:56:13.015Z,3.62
2018-09-28T22:58:40.748Z,3.40
2018-09-28T23:01:08.461Z,4.12
2018-09-28T23:03:36.154Z,3.80
2018-09-28T23:06:03.923Z,3.02
2018-09-28T23:08:31.696Z,3.25
2018-09-28T23:10:59.424Z,3.37
2018-09-28T23:13:27.135Z,3.67
2018-09-28T23:15:54.905Z,4.22
2018-09-28T23:18:22.632Z,3.37
2018-09-28T23:20:50.402Z,2.95
2018-09-28T23:23:18.096Z,3.77
2018-09-28T23:25:45.845Z,2.87
2018-09-28T23:28:13.556Z,2.62
2018-09-28T23:30:41.268Z,3.27
2018-09-28T23:33:08.986Z,2.72
2018-09-28T23:35:36.710Z,2.75
2018-09-28T23:38:04.412Z,2.20
2018-09-28T23:40:32.157Z,3.00
2018-09-28T23:42:59.864Z,2.75
2018-09-28T23:45:27.577Z,3.60
2018-09-28T23:47:55.280Z,3.55
2018-09-28T23:50:22.987Z,2.85
2018-09-28T23:52:50.729Z,2.65
2018-09-28T23:55:18.477Z,3.67
2018-09-28T23:57:46.199Z,3.87
